createdAt,value
2017-10-15T00:01:18.096Z,99.90
2017-10-15T00:03:45.586Z,99.90
2017-10-15T00:06:13.144Z,99.90
2017-10-15T00:08:40.601Z,99.90
2017-10-15T00:11:08.176Z,99.90
2017-10-15T00:13:35.681Z,99.90
2017-10-15T00:16:03.140Z,99.90
2017-10-15T00:18:30.685Z,99.90
2017-10-15T00:20:58.160Z,99.90
2017-10-15T00:23:25.653Z,99.90
2017-10-15T00:25:53.104Z,99.90
2017-10-15T00:28:20.572Z,99.90
2017-10-15T00:30:48.032Z,99.90
2017-10-15T00:33:15.509Z,99.90
2017-10-15T00:35:43.729Z,99.90
2017-10-15T00:38:11.253Z,99.90
2017-10-15T00:40:38.723Z,99.90
2017-10-15T00:43:06.189Z,99.90
2017-10-15T00:45:33.643Z,99.90
2017-10-15T00:48:01.156Z,99.90
2017-10-15T00:50:28.685Z,99.90
2017-10-15T00:52:56.133Z,99.90
2017-10-15T00:55:23.630Z,99.90
2017-10-15T00:57:51.074Z,99.90
2017-10-15T01:00:18.644Z,99.90
2017-10-15T01:02:46.100Z,99.90
2017-10-15T01:05:13.629Z,99.90
2017-10-15T01:07:41.079Z,99.90
2017-10-15T01:10:08.587Z,99.90
2017-10-15T01:12:36.046Z,99.90
2017-10-15T01:15:03.773Z,99.90
2017-10-15T01:17:31.250Z,99.90
2017-10-15T01:19:58.796Z,99.90
2017-10-15T01:22:26.237Z,99.90
2017-10-15T01:24:53.757Z,99.90
2017-10-15T01:27:21.982Z,99.90
2017-10-15T01:29:49.458Z,99.90
2017-10-15T01:32:16.918Z,99.90
2017-10-15T01:34:44.506Z,99.90
2017-10-15T01:37:11.957Z,99.90
2017-10-15T01:39:39.411Z,99.90
2017-10-15T01:42:06.964Z,99.90
2017-10-15T01:44:34.602Z,99.90
2017-10-15T01:47:02.046Z,99.90
2017-10-15T01:49:29.541Z,99.90
2017-10-15T01:51:57.757Z,99.90
2017-10-15T01:54:25.336Z,99.90
2017-10-15T01:56:52.834Z,99.90
2017-10-15T01:59:20.354Z,99.90
2017-10-15T02:01:48.183Z,99.90
2017-10-15T02:04:15.723Z,99.90
2017-10-15T02:06:43.182Z,99.90
2017-10-15T02:09:10.642Z,99.90
2017-10-15T02:11:38.098Z,99.90
2017-10-15T02:14:05.549Z,99.90
2017-10-15T02:16:33.098Z,99.90
2017-10-15T02:19:00.657Z,99.90
2017-10-15T02:21:28.134Z,99.90
2017-10-15T02:23:55.593Z,99.90
2017-10-15T02:26:23.041Z,99.90
2017-10-15T02:28:50.531Z,99.90
2017-10-15T02:31:18.751Z,99.90
2017-10-15T02:33:46.219Z,99.90
2017-10-15T02:36:13.851Z,99.90
2017-10-15T02:38:41.292Z,99.90
2017-10-15T02:41:08.802Z,99.90
2017-10-15T02:43:36.294Z,99.90
2017-10-15T02:46:04.508Z,99.90
2017-10-15T02:48:31.987Z,99.90
2017-10-15T02:50:59.554Z,99.90
2017-10-15T02:53:27.013Z,99.90
2017-10-15T02:55:54.880Z,99.90
2017-10-15T02:58:22.432Z,99.90
2017-10-15T03:00:49.881Z,99.90
2017-10-15T03:03:17.337Z,99.90
2017-10-15T03:05:44.814Z,99.90
2017-10-15T03:08:12.392Z,99.90
2017-10-15T03:10:39.921Z,99.90
2017-10-15T03:13:07.399Z,99.90
2017-10-15T03:15:34.867Z,99.90
2017-10-15T03:18:03.104Z,99.90
2017-10-15T03:20:30.549Z,99.90
2017-10-15T03:22:58.010Z,99.90
2017-10-15T03:25:25.472Z,99.90
2017-10-15T03:27:53.026Z,99.90
2017-10-15T03:30:20.461Z,99.90
2017-10-15T03:32:48.028Z,99.90
2017-10-15T03:35:15.517Z,99.90
2017-10-15T03:37:42.980Z,99.90
2017-10-15T03:40:10.419Z,99.90
2017-10-15T03:42:37.913Z,99.90
2017-10-15T03:45:07.711Z,99.90
2017-10-15T03:47:35.281Z,99.90
2017-10-15T03:50:02.828Z,99.90
2017-10-15T03:52:30.286Z,99.90
2017-10-15T03:54:57.861Z,99.90
2017-10-15T03:57:25.405Z,99.90
2017-10-15T03:59:53.014Z,99.90
2017-10-15T04:02:20.476Z,99.90
2017-10-15T04:04:48.709Z,99.90
2017-10-15T04:07:16.159Z,99.90
2017-10-15T04:09:43.629Z,99.90
2017-10-15T04:12:11.090Z,99.90
2017-10-15T04:14:39.330Z,99.90
2017-10-15T04:17:06.779Z,99.90
2017-10-15T04:19:34.235Z,99.90
2017-10-15T04:22:01.684Z,99.90
2017-10-15T04:24:29.155Z,99.90
2017-10-15T04:26:56.607Z,99.90
2017-10-15T04:29:24.095Z,99.90
2017-10-15T04:31:51.658Z,99.90
2017-10-15T04:34:19.110Z,99.90
2017-10-15T04:36:46.675Z,99.90
2017-10-15T04:39:14.213Z,99.90
2017-10-15T04:41:41.669Z,99.90
2017-10-15T04:44:09.154Z,99.90
2017-10-15T04:46:36.703Z,99.90
2017-10-15T04:49:04.260Z,99.90
2017-10-15T04:51:31.809Z,99.90
2017-10-15T04:53:59.270Z,99.90
2017-10-15T04:56:27.498Z,99.90
2017-10-15T04:58:54.937Z,99.90
2017-10-15T05:01:23.190Z,99.90
2017-10-15T05:03:50.626Z,99.90
2017-10-15T05:06:18.085Z,99.90
2017-10-15T05:08:45.544Z,99.90
2017-10-15T05:11:13.074Z,99.90
2017-10-15T05:13:40.515Z,99.90
2017-10-15T05:16:07.973Z,99.90
2017-10-15T05:18:35.438Z,99.90
2017-10-15T05:21:02.921Z,99.90
2017-10-15T05:23:30.409Z,99.90
2017-10-15T05:25:57.918Z,99.90
2017-10-15T05:28:25.405Z,99.90
2017-10-15T05:30:52.860Z,99.90
2017-10-15T05:33:20.328Z,99.90
2017-10-15T05:35:47.787Z,99.90
2017-10-15T05:38:15.482Z,99.90
2017-10-15T05:40:43.695Z,99.90
2017-10-15T05:43:11.181Z,99.90
2017-10-15T05:45:38.666Z,99.90
2017-10-15T05:48:06.890Z,99.90
2017-10-15T05:50:34.349Z,99.90
2017-10-15T05:53:01.825Z,99.90
2017-10-15T05:55:29.274Z,99.90
2017-10-15T05:57:56.737Z,99.90
2017-10-15T06:00:24.215Z,99.90
2017-10-15T06:02:51.751Z,99.90
2017-10-15T06:05:19.210Z,99.90
2017-10-15T06:07:46.841Z,99.90
2017-10-15T06:10:14.286Z,99.90
2017-10-15T06:12:41.838Z,99.90
2017-10-15T06:15:10.041Z,99.90
2017-10-15T06:17:37.509Z,99.90
2017-10-15T06:20:05.050Z,99.90
2017-10-15T06:22:32.485Z,99.90
2017-10-15T06:24:59.990Z,99.90
2017-10-15T06:27:27.444Z,99.90
2017-10-15T06:29:54.914Z,99.90
2017-10-15T06:32:22.393Z,99.90
2017-10-15T06:34:49.850Z,99.90
2017-10-15T06:37:18.114Z,99.90
2017-10-15T06:39:45.577Z,99.90
2017-10-15T06:42:13.054Z,99.90
2017-10-15T06:44:41.284Z,99.90
2017-10-15T06:47:08.733Z,99.90
2017-10-15T06:49:36.217Z,99.90
2017-10-15T06:52:03.770Z,99.90
2017-10-15T06:54:31.223Z,99.90
2017-10-15T06:56:58.674Z,99.90
2017-10-15T06:59:26.133Z,99.90
2017-10-15T07:01:53.595Z,99.90
2017-10-15T07:04:21.065Z,99.90
2017-10-15T07:06:48.517Z,99.90
2017-10-15T07:09:16.074Z,99.90
2017-10-15T07:11:43.534Z,99.90
2017-10-15T07:14:10.987Z,99.90
2017-10-15T07:16:38.550Z,99.90
2017-10-15T07:19:06.034Z,99.90
2017-10-15T07:21:34.282Z,99.90
2017-10-15T07:24:01.748Z,99.90
2017-10-15T07:26:29.197Z,99.90
2017-10-15T07:28:56.650Z,99.90
2017-10-15T07:31:24.137Z,99.90
2017-10-15T07:33:51.677Z,99.90
2017-10-15T07:36:19.238Z,99.90
2017-10-15T07:38:46.793Z,99.90
2017-10-15T07:41:14.346Z,99.90
2017-10-15T07:43:41.802Z,99.90
2017-10-15T07:46:09.366Z,99.90
2017-10-15T07:48:36.818Z,99.90
2017-10-15T07:51:04.406Z,99.90
2017-10-15T07:53:32.628Z,99.90
2017-10-15T07:56:00.085Z,99.90
2017-10-15T07:58:27.574Z,99.80
2017-10-15T08:00:55.157Z,99.90
2017-10-15T08:03:23.418Z,99.30
2017-10-15T08:05:50.890Z,99.50
2017-10-15T08:08:18.429Z,99.00
2017-10-15T08:10:45.877Z,98.50
2017-10-15T08:13:13.442Z,98.30
2017-10-15T08:15:40.893Z,97.80
2017-10-15T08:18:08.346Z,97.60
2017-10-15T08:20:35.793Z,97.80
2017-10-15T08:23:03.246Z,97.50
2017-10-15T08:25:30.709Z,96.60
2017-10-15T08:27:58.185Z,96.10
2017-10-15T08:30:25.755Z,95.70
2017-10-15T08:32:54.027Z,95.10
2017-10-15T08:35:21.483Z,95.10
2017-10-15T08:37:48.945Z,94.90
2017-10-15T08:40:16.400Z,94.70
2017-10-15T08:42:43.919Z,94.30
2017-10-15T08:45:11.373Z,93.80
2017-10-15T08:47:38.870Z,93.50
2017-10-15T08:50:06.318Z,92.80
2017-10-15T08:52:33.783Z,92.50
2017-10-15T08:55:01.339Z,91.70
2017-10-15T08:57:28.865Z,90.60
2017-10-15T08:59:56.364Z,90.30
2017-10-15T09:02:23.933Z,89.40
2017-10-15T09:04:51.394Z,88.30
2017-10-15T09:07:19.657Z,87.90
2017-10-15T09:09:47.127Z,87.90
2017-10-15T09:12:14.682Z,87.70
2017-10-15T09:14:42.158Z,88.50
2017-10-15T09:17:10.382Z,86.60
2017-10-15T09:19:37.841Z,86.60
2017-10-15T09:22:05.334Z,85.80
2017-10-15T09:24:32.898Z,85.40
2017-10-15T09:27:01.118Z,85.60
2017-10-15T09:29:28.677Z,85.60
2017-10-15T09:31:56.117Z,84.70
2017-10-15T09:34:23.574Z,83.60
2017-10-15T09:36:51.033Z,83.10
2017-10-15T09:39:18.492Z,86.30
2017-10-15T09:41:45.946Z,83.70
2017-10-15T09:44:13.450Z,83.60
2017-10-15T09:46:40.923Z,83.30
2017-10-15T09:49:08.481Z,83.10
2017-10-15T09:51:35.929Z,83.60
2017-10-15T09:54:03.497Z,83.50
2017-10-15T09:56:30.966Z,82.70
2017-10-15T09:58:58.505Z,84.00
2017-10-15T10:01:25.961Z,83.50
2017-10-15T10:03:53.419Z,82.50
2017-10-15T10:06:20.974Z,82.00
2017-10-15T10:08:48.435Z,82.10
2017-10-15T10:11:16.009Z,81.40
2017-10-15T10:13:43.559Z,80.20
2017-10-15T10:16:11.021Z,79.90
2017-10-15T10:18:38.470Z,79.60
2017-10-15T10:21:05.933Z,79.40
2017-10-15T10:23:33.393Z,78.40
2017-10-15T10:26:01.055Z,78.80
2017-10-15T10:28:28.505Z,77.00
2017-10-15T10:30:55.974Z,76.40
2017-10-15T10:33:23.422Z,75.60
2017-10-15T10:35:50.873Z,76.20
2017-10-15T10:38:18.434Z,75.80
2017-10-15T10:40:45.892Z,76.50
2017-10-15T10:43:13.348Z,75.20
2017-10-15T10:45:40.874Z,75.60
2017-10-15T10:48:08.366Z,75.00
2017-10-15T10:50:35.830Z,73.80
2017-10-15T10:53:03.285Z,74.00
2017-10-15T10:55:30.838Z,73.70
2017-10-15T10:57:58.306Z,74.40
2017-10-15T11:00:25.863Z,73.20
2017-10-15T11:02:53.426Z,73.30
2017-10-15T11:05:20.870Z,72.40
2017-10-15T11:07:48.434Z,71.90
2017-10-15T11:10:16.102Z,72.40
2017-10-15T11:12:43.570Z,71.70
2017-10-15T11:15:11.013Z,70.40
2017-10-15T11:17:38.534Z,70.10
2017-10-15T11:20:06.010Z,69.00
2017-10-15T11:22:33.471Z,69.50
2017-10-15T11:25:00.922Z,69.00
2017-10-15T11:27:28.465Z,67.50
2017-10-15T11:29:55.923Z,67.90
2017-10-15T11:32:23.398Z,66.30
2017-10-15T11:34:50.857Z,66.60
2017-10-15T11:37:18.330Z,64.50
2017-10-15T11:39:45.890Z,65.80
2017-10-15T11:42:13.346Z,64.90
2017-10-15T11:44:40.906Z,64.30
2017-10-15T11:47:08.384Z,63.90
2017-10-15T11:49:36.605Z,63.80
2017-10-15T11:52:04.098Z,63.60
2017-10-15T11:54:31.658Z,64.50
2017-10-15T11:56:59.114Z,62.50
2017-10-15T11:59:26.637Z,61.80
2017-10-15T12:01:54.102Z,61.70
2017-10-15T12:04:21.547Z,62.30
2017-10-15T12:06:49.111Z,61.00
2017-10-15T12:09:16.669Z,59.70
2017-10-15T12:11:44.165Z,60.00
2017-10-15T12:14:11.659Z,60.80
2017-10-15T12:16:39.903Z,60.80
2017-10-15T12:19:07.369Z,60.60
2017-10-15T12:21:34.825Z,58.60
2017-10-15T12:24:02.289Z,59.50
2017-10-15T12:26:29.851Z,60.00
2017-10-15T12:28:58.126Z,59.20
2017-10-15T12:31:25.669Z,59.20
2017-10-15T12:33:53.125Z,58.90
2017-10-15T12:36:20.586Z,58.40
2017-10-15T12:38:48.101Z,59.00
2017-10-15T12:41:15.543Z,59.00
2017-10-15T12:43:42.998Z,60.50
2017-10-15T12:46:10.462Z,60.50
2017-10-15T12:48:37.909Z,61.10
2017-10-15T12:51:05.388Z,60.40
2017-10-15T12:53:32.826Z,60.70
2017-10-15T12:56:00.286Z,61.60
2017-10-15T12:58:27.772Z,61.80
2017-10-15T13:00:55.231Z,62.60
2017-10-15T13:03:22.792Z,63.00
2017-10-15T13:05:50.343Z,62.60
2017-10-15T13:08:17.834Z,62.80
2017-10-15T13:10:45.358Z,62.90
2017-10-15T13:13:12.854Z,62.20
2017-10-15T13:15:41.167Z,63.50
2017-10-15T13:18:09.389Z,64.90
2017-10-15T13:20:36.861Z,64.90
2017-10-15T13:23:04.319Z,66.00
2017-10-15T13:25:31.778Z,65.80
2017-10-15T13:27:59.242Z,65.20
2017-10-15T13:30:26.693Z,66.40
2017-10-15T13:32:54.254Z,65.70
2017-10-15T13:35:21.768Z,65.10
2017-10-15T13:37:49.219Z,65.20
2017-10-15T13:40:16.670Z,65.70
2017-10-15T13:42:44.122Z,66.00
2017-10-15T13:45:11.682Z,66.90
2017-10-15T13:47:39.136Z,68.00
2017-10-15T13:50:06.656Z,68.00
2017-10-15T13:52:34.215Z,67.70
2017-10-15T13:55:01.690Z,67.70
2017-10-15T13:57:29.145Z,68.30
2017-10-15T13:59:57.383Z,68.60
2017-10-15T14:02:24.844Z,68.50
2017-10-15T14:04:52.297Z,69.70
2017-10-15T14:07:19.754Z,70.00
2017-10-15T14:09:47.233Z,68.90
2017-10-15T14:12:14.682Z,68.50
2017-10-15T14:14:42.965Z,68.70
2017-10-15T14:17:10.425Z,69.20
2017-10-15T14:19:37.976Z,69.10
2017-10-15T14:22:05.551Z,69.40
2017-10-15T14:24:33.166Z,70.10
2017-10-15T14:27:00.626Z,69.20
2017-10-15T14:29:28.083Z,70.30
2017-10-15T14:31:55.550Z,70.20
2017-10-15T14:34:23.041Z,69.90
2017-10-15T14:36:50.505Z,70.40
2017-10-15T14:39:18.052Z,71.00
2017-10-15T14:41:45.529Z,71.70
2017-10-15T14:44:13.777Z,72.00
2017-10-15T14:46:41.250Z,72.00
2017-10-15T14:49:10.221Z,72.60
2017-10-15T14:51:37.757Z,72.60
2017-10-15T14:54:05.212Z,73.50
2017-10-15T14:56:32.670Z,74.10
2017-10-15T14:59:00.231Z,74.60
2017-10-15T15:01:27.684Z,75.60
2017-10-15T15:03:55.133Z,76.10
2017-10-15T15:06:22.644Z,76.60
2017-10-15T15:08:50.102Z,77.90
2017-10-15T15:11:17.560Z,78.30
2017-10-15T15:13:45.031Z,78.50
2017-10-15T15:16:13.285Z,78.60
2017-10-15T15:18:40.758Z,78.60
2017-10-15T15:21:08.305Z,79.60
2017-10-15T15:23:35.825Z,79.50
2017-10-15T15:26:03.271Z,79.90
2017-10-15T15:28:30.865Z,80.30
2017-10-15T15:30:58.330Z,80.80
2017-10-15T15:33:25.789Z,81.10
2017-10-15T15:35:53.258Z,81.90
2017-10-15T15:38:20.739Z,82.80
2017-10-15T15:40:49.049Z,84.20
2017-10-15T15:43:16.608Z,84.20
2017-10-15T15:45:44.060Z,85.00
2017-10-15T15:48:11.520Z,85.50
2017-10-15T15:50:39.084Z,86.80
2017-10-15T15:53:06.535Z,87.00
2017-10-15T15:55:33.984Z,88.20
2017-10-15T15:58:01.433Z,88.80
2017-10-15T16:00:28.947Z,89.70
2017-10-15T16:02:56.394Z,90.40
2017-10-15T16:05:23.928Z,91.00
2017-10-15T16:07:51.385Z,91.40
2017-10-15T16:10:18.832Z,91.90
2017-10-15T16:12:46.279Z,92.20
2017-10-15T16:15:13.775Z,92.70
2017-10-15T16:17:41.224Z,93.10
2017-10-15T16:20:08.681Z,93.50
2017-10-15T16:22:36.169Z,93.70
2017-10-15T16:25:03.626Z,94.00
2017-10-15T16:27:32.614Z,94.90
2017-10-15T16:30:00.081Z,94.90
2017-10-15T16:32:27.630Z,95.20
2017-10-15T16:34:55.082Z,95.60
2017-10-15T16:37:22.717Z,95.80
2017-10-15T16:39:50.202Z,96.20
2017-10-15T16:42:17.666Z,96.60
2017-10-15T16:44:45.128Z,96.90
2017-10-15T16:47:12.581Z,97.30
2017-10-15T16:49:40.054Z,97.50
2017-10-15T16:52:08.302Z,98.50
2017-10-15T16:54:40.692Z,98.30
2017-10-15T16:57:08.154Z,99.00
2017-10-15T16:59:35.610Z,99.90
2017-10-15T17:02:03.066Z,99.90
2017-10-15T17:04:30.659Z,99.90
2017-10-15T17:06:58.125Z,99.90
2017-10-15T17:09:25.598Z,99.90
2017-10-15T17:11:53.157Z,99.90
2017-10-15T17:14:20.613Z,99.90
2017-10-15T17:16:48.175Z,99.90
2017-10-15T17:19:15.634Z,99.90
2017-10-15T17:21:43.148Z,99.90
2017-10-15T17:24:11.417Z,99.90
2017-10-15T17:26:38.939Z,99.90
2017-10-15T17:29:06.424Z,99.90
2017-10-15T17:31:33.981Z,99.90
2017-10-15T17:34:01.444Z,99.90
2017-10-15T17:36:28.919Z,99.90
2017-10-15T17:38:57.152Z,99.90
2017-10-15T17:41:24.619Z,99.90
2017-10-15T17:43:52.092Z,99.90
2017-10-15T17:46:19.560Z,99.90
2017-10-15T17:48:47.818Z,99.90
2017-10-15T17:51:15.373Z,99.90
2017-10-15T17:53:43.001Z,99.90
2017-10-15T17:56:10.458Z,99.90
2017-10-15T17:58:37.925Z,99.90
2017-10-15T18:01:05.402Z,99.90
2017-10-15T18:03:32.859Z,99.90
2017-10-15T18:06:00.327Z,99.90
2017-10-15T18:08:28.870Z,99.90
2017-10-15T18:10:56.395Z,99.90
2017-10-15T18:13:24.749Z,99.90
2017-10-15T18:15:52.311Z,99.90
2017-10-15T18:18:19.772Z,99.90
2017-10-15T18:20:47.316Z,99.90
2017-10-15T18:23:14.829Z,99.90
2017-10-15T18:25:42.285Z,99.90
2017-10-15T18:28:09.741Z,99.90
2017-10-15T18:30:37.214Z,99.90
2017-10-15T18:33:04.690Z,99.90
2017-10-15T18:35:32.261Z,99.90
2017-10-15T18:37:59.790Z,99.90
2017-10-15T18:40:27.247Z,99.90
2017-10-15T18:42:54.710Z,99.90
2017-10-15T18:45:22.264Z,99.90
2017-10-15T18:47:49.780Z,99.90
2017-10-15T18:50:18.101Z,99.90
2017-10-15T18:52:45.540Z,99.90
2017-10-15T18:55:13.009Z,99.90
2017-10-15T18:57:40.522Z,99.90
2017-10-15T19:00:08.106Z,99.90
2017-10-15T19:02:36.342Z,99.90
2017-10-15T19:05:03.918Z,99.90
2017-10-15T19:07:31.379Z,99.90
2017-10-15T19:09:58.853Z,99.90
2017-10-15T19:12:27.105Z,99.90
2017-10-15T19:14:54.574Z,99.90
2017-10-15T19:17:22.027Z,99.90
2017-10-15T19:19:49.601Z,99.90
2017-10-15T19:22:17.848Z,99.90
2017-10-15T19:24:45.405Z,99.90
2017-10-15T19:27:12.900Z,99.90
2017-10-15T19:29:41.132Z,99.90
2017-10-15T19:32:08.595Z,99.90
2017-10-15T19:34:36.065Z,99.90
2017-10-15T19:37:03.616Z,99.90
2017-10-15T19:39:31.074Z,99.90
2017-10-15T19:41:58.634Z,99.90
2017-10-15T19:44:26.190Z,99.90
2017-10-15T19:46:53.661Z,99.90
2017-10-15T19:49:21.138Z,99.90
2017-10-15T19:51:49.379Z,99.90
2017-10-15T19:54:16.837Z,99.90
2017-10-15T19:56:44.461Z,99.90
2017-10-15T19:59:11.926Z,99.90
2017-10-15T20:01:39.403Z,99.90
2017-10-15T20:04:06.866Z,99.90
2017-10-15T20:06:34.434Z,99.90
2017-10-15T20:09:02.151Z,99.90
2017-10-15T20:11:30.017Z,99.90
2017-10-15T20:13:57.517Z,99.90
2017-10-15T20:16:24.977Z,99.90
2017-10-15T20:18:52.437Z,99.90
2017-10-15T20:21:19.957Z,99.90
2017-10-15T20:23:47.422Z,99.90
2017-10-15T20:26:14.875Z,99.90
2017-10-15T20:28:42.429Z,99.90
2017-10-15T20:31:09.878Z,99.90
2017-10-15T20:33:37.338Z,99.90
2017-10-15T20:36:04.902Z,99.90
2017-10-15T20:38:32.418Z,99.90
2017-10-15T20:40:59.875Z,99.90
2017-10-15T20:43:27.329Z,99.90
2017-10-15T20:45:54.794Z,99.90
2017-10-15T20:48:23.022Z,99.90
2017-10-15T20:50:50.520Z,99.90
2017-10-15T20:53:18.074Z,99.90
2017-10-15T20:55:45.537Z,99.90
2017-10-15T20:58:13.093Z,99.90
2017-10-15T21:00:40.553Z,99.90
2017-10-15T21:03:08.018Z,99.90
2017-10-15T21:05:36.335Z,99.90
2017-10-15T21:08:03.792Z,99.90
2017-10-15T21:10:31.251Z,99.90
2017-10-15T21:12:58.745Z,99.90
2017-10-15T21:15:26.306Z,99.90
2017-10-15T21:17:53.861Z,99.90
2017-10-15T21:20:22.138Z,99.90
2017-10-15T21:22:49.609Z,99.90
2017-10-15T21:25:17.074Z,99.90
2017-10-15T21:27:44.628Z,99.90
2017-10-15T21:30:12.200Z,99.90
2017-10-15T21:32:40.453Z,99.90
2017-10-15T21:35:07.927Z,99.90
2017-10-15T21:37:35.476Z,99.90
2017-10-15T21:40:03.720Z,99.90
2017-10-15T21:42:31.266Z,99.90
2017-10-15T21:44:58.715Z,99.90
2017-10-15T21:47:26.292Z,99.90
2017-10-15T21:49:53.810Z,99.90
2017-10-15T21:52:22.119Z,99.90
2017-10-15T21:54:49.623Z,99.90
2017-10-15T21:57:17.194Z,99.90
2017-10-15T21:59:45.518Z,99.90
2017-10-15T22:02:12.989Z,99.90
2017-10-15T22:04:40.541Z,99.90
2017-10-15T22:07:08.052Z,99.90
2017-10-15T22:09:35.502Z,99.90
2017-10-15T22:12:03.762Z,99.90
2017-10-15T22:14:31.243Z,99.90
2017-10-15T22:16:59.486Z,99.90
2017-10-15T22:19:27.073Z,99.90
2017-10-15T22:22:00.137Z,99.90
2017-10-15T22:24:27.701Z,99.90
2017-10-15T22:26:55.174Z,99.90
2017-10-15T22:29:22.642Z,99.90
2017-10-15T22:31:50.871Z,99.90
2017-10-15T22:34:18.331Z,99.90
2017-10-15T22:36:45.781Z,99.90
2017-10-15T22:39:13.248Z,99.90
2017-10-15T22:41:40.722Z,99.90
2017-10-15T22:44:08.241Z,99.90
2017-10-15T22:46:35.697Z,99.90
2017-10-15T22:49:03.194Z,99.90
2017-10-15T22:51:30.759Z,99.90
2017-10-15T22:53:58.277Z,99.90
2017-10-15T22:56:25.741Z,99.90
2017-10-15T22:58:53.218Z,99.90
2017-10-15T23:01:20.682Z,99.90
2017-10-15T23:03:48.134Z,99.90
2017-10-15T23:06:15.694Z,99.90
2017-10-15T23:08:43.153Z,99.90
2017-10-15T23:11:10.618Z,99.90
2017-10-15T23:13:38.239Z,99.90
2017-10-15T23:16:05.768Z,99.90
2017-10-15T23:18:33.998Z,99.90
2017-10-15T23:21:01.462Z,99.90
2017-10-15T23:23:29.018Z,99.90
2017-10-15T23:25:56.498Z,99.90
2017-10-15T23:28:24.103Z,99.90
2017-10-15T23:30:51.568Z,99.90
2017-10-15T23:33:19.022Z,99.90
2017-10-15T23:35:46.539Z,99.90
2017-10-15T23:38:13.997Z,99.90
2017-10-15T23:40:41.468Z,99.90
2017-10-15T23:43:09.773Z,99.90
2017-10-15T23:45:37.217Z,99.90
2017-10-15T23:48:04.757Z,99.90
2017-10-15T23:50:33.005Z,99.90
2017-10-15T23:53:00.563Z,99.90
2017-10-15T23:55:28.012Z,99.90
2017-10-15T23:57:55.541Z,99.90
